createdAt,value
2022-07-25T00:01:37.219Z,1.30
2022-07-25T00:04:09.451Z,1.45
2022-07-25T00:06:40.280Z,1.58
2022-07-25T00:09:08.498Z,1.45
2022-07-25T00:11:36.443Z,1.70
2022-07-25T00:14:04.929Z,1.60
2022-07-25T00:16:33.501Z,1.77
2022-07-25T00:19:01.391Z,1.52
2022-07-25T00:21:30.600Z,1.73
2022-07-25T00:23:58.675Z,1.67
2022-07-25T00:26:26.549Z,1.30
2022-07-25T00:28:54.436Z,1.55
2022-07-25T00:31:24.919Z,1.55
2022-07-25T00:33:52.950Z,1.42
2022-07-25T00:36:21.021Z,2.15
2022-07-25T00:38:50.591Z,1.40
2022-07-25T00:41:18.509Z,1.37
2022-07-25T00:43:46.975Z,1.48
2022-07-25T00:46:18.902Z,1.35
2022-07-25T00:48:47.453Z,1.20
2022-07-25T00:51:17.115Z,1.92
2022-07-25T00:53:46.183Z,1.60
2022-07-25T00:56:16.607Z,1.60
2022-07-25T00:58:46.044Z,1.80
2022-07-25T01:01:13.997Z,1.75
2022-07-25T01:03:41.901Z,1.60
2022-07-25T01:06:10.104Z,1.50
2022-07-25T01:08:38.357Z,1.77
2022-07-25T01:11:09.273Z,1.30
2022-07-25T01:13:38.771Z,1.35
2022-07-25T01:16:07.281Z,1.33
2022-07-25T01:18:35.509Z,1.20
2022-07-25T01:21:05.743Z,1.60
2022-07-25T01:23:33.674Z,1.40
2022-07-25T01:26:01.591Z,1.60
2022-07-25T01:28:29.755Z,1.60
2022-07-25T01:30:57.929Z,1.50
2022-07-25T01:33:26.009Z,1.65
2022-07-25T01:35:54.207Z,1.50
2022-07-25T01:38:23.408Z,1.67
2022-07-25T01:40:52.223Z,1.60
2022-07-25T01:43:20.367Z,1.40
2022-07-25T01:45:48.314Z,1.67
2022-07-25T01:48:16.210Z,1.27
2022-07-25T01:50:45.286Z,1.98
2022-07-25T01:53:13.181Z,1.20
2022-07-25T01:55:42.716Z,1.90
2022-07-25T01:58:11.428Z,1.27
2022-07-25T02:00:39.997Z,1.45
2022-07-25T02:03:26.173Z,1.30
2022-07-25T02:05:54.079Z,1.50
2022-07-25T02:08:22.257Z,1.85
2022-07-25T02:10:51.538Z,1.80
2022-07-25T02:13:20.560Z,1.60
2022-07-25T02:15:49.239Z,1.62
2022-07-25T02:18:17.297Z,1.45
2022-07-25T02:20:45.302Z,1.77
2022-07-25T02:23:13.430Z,2.05
2022-07-25T02:25:43.571Z,1.85
2022-07-25T02:28:12.734Z,1.70
2022-07-25T02:30:40.942Z,1.70
2022-07-25T02:33:09.051Z,1.77
2022-07-25T02:35:37.042Z,1.58
2022-07-25T02:38:05.246Z,2.40
2022-07-25T02:40:33.159Z,1.90
2022-07-25T02:43:01.068Z,2.03
2022-07-25T02:45:30.544Z,1.80
2022-07-25T02:47:58.379Z,1.70
2022-07-25T02:50:26.422Z,1.77
2022-07-25T02:52:54.534Z,1.87
2022-07-25T02:55:22.710Z,2.05
2022-07-25T02:57:50.720Z,1.83
2022-07-25T03:00:19.316Z,2.10
2022-07-25T03:02:48.549Z,1.48
2022-07-25T03:05:17.640Z,1.80
2022-07-25T03:07:46.396Z,1.87
2022-07-25T03:10:15.529Z,1.80
2022-07-25T03:12:44.714Z,1.65
2022-07-25T03:15:15.741Z,1.85
2022-07-25T03:17:43.831Z,1.62
2022-07-25T03:20:13.771Z,1.90
2022-07-25T03:22:41.936Z,1.75
2022-07-25T03:25:15.938Z,2.10
2022-07-25T03:27:52.700Z,2.30
2022-07-25T03:30:20.574Z,1.83
2022-07-25T03:32:48.650Z,2.33
2022-07-25T03:35:18.171Z,2.70
2022-07-25T03:37:46.592Z,2.25
2022-07-25T03:40:15.411Z,2.37
2022-07-25T03:42:44.318Z,2.12
2022-07-25T03:45:12.882Z,2.37
2022-07-25T03:47:41.009Z,2.35
2022-07-25T03:50:10.261Z,3.22
2022-07-25T03:52:39.556Z,2.70
2022-07-25T03:55:09.060Z,2.55
2022-07-25T03:57:38.165Z,2.90
2022-07-25T04:00:08.211Z,3.28
2022-07-25T04:02:37.618Z,3.00
2022-07-25T04:05:06.608Z,3.05
2022-07-25T04:07:34.551Z,3.90
2022-07-25T04:10:04.700Z,3.00
2022-07-25T04:12:32.864Z,3.00
2022-07-25T04:15:00.814Z,2.97
2022-07-25T04:17:29.077Z,2.72
2022-07-25T04:19:57.067Z,2.55
2022-07-25T04:22:25.073Z,3.47
2022-07-25T04:24:53.220Z,3.40
2022-07-25T04:27:22.447Z,3.03
2022-07-25T04:29:50.340Z,2.95
2022-07-25T04:32:23.344Z,2.90
2022-07-25T04:34:55.346Z,3.35
2022-07-25T04:37:23.534Z,2.87
2022-07-25T04:39:51.468Z,3.33
2022-07-25T04:42:19.366Z,3.60
2022-07-25T04:44:48.828Z,3.05
2022-07-25T04:47:16.731Z,2.90
2022-07-25T04:49:44.643Z,3.00
2022-07-25T04:52:12.835Z,3.17
2022-07-25T04:54:40.779Z,3.20
2022-07-25T04:57:08.670Z,2.90
2022-07-25T04:59:37.135Z,3.17
2022-07-25T05:02:06.587Z,3.30
2022-07-25T05:04:34.955Z,3.10
2022-07-25T05:07:03.136Z,2.78
2022-07-25T05:09:31.079Z,3.17
2022-07-25T05:11:59.161Z,2.83
2022-07-25T05:14:27.236Z,2.70
2022-07-25T05:16:55.299Z,3.17
2022-07-25T05:19:24.611Z,3.25
2022-07-25T05:21:53.116Z,2.70
2022-07-25T05:24:22.957Z,3.22
2022-07-25T05:26:51.622Z,2.87
2022-07-25T05:29:19.833Z,3.20
2022-07-25T05:31:47.927Z,3.15
2022-07-25T05:34:16.080Z,3.08
2022-07-25T05:36:47.487Z,3.12
2022-07-25T05:39:15.490Z,3.60
2022-07-25T05:41:43.622Z,3.42
2022-07-25T05:44:11.837Z,3.28
2022-07-25T05:46:39.775Z,3.30
2022-07-25T05:49:07.825Z,3.25
2022-07-25T05:51:36.085Z,3.65
2022-07-25T05:54:05.661Z,3.50
2022-07-25T05:56:33.794Z,3.58
2022-07-25T05:59:01.942Z,3.67
2022-07-25T06:01:29.956Z,3.65
2022-07-25T06:03:58.349Z,3.58
2022-07-25T06:06:26.369Z,3.80
2022-07-25T06:08:54.246Z,3.45
2022-07-25T06:11:26.847Z,3.87
2022-07-25T06:13:59.019Z,3.80
2022-07-25T06:16:28.078Z,3.33
2022-07-25T06:18:56.002Z,3.60
2022-07-25T06:21:24.207Z,3.97
2022-07-25T06:23:52.311Z,3.53
2022-07-25T06:26:20.191Z,3.33
2022-07-25T06:28:49.389Z,3.87
2022-07-25T06:31:17.535Z,3.60
2022-07-25T06:33:45.455Z,4.18
2022-07-25T06:36:13.287Z,3.55
2022-07-25T06:38:41.391Z,4.28
2022-07-25T06:41:09.239Z,3.50
2022-07-25T06:43:37.156Z,4.12
2022-07-25T06:46:06.978Z,4.30
2022-07-25T06:48:34.864Z,3.75
2022-07-25T06:51:03.929Z,3.80
2022-07-25T06:53:32.119Z,4.53
2022-07-25T06:56:00.191Z,3.60
2022-07-25T06:58:28.337Z,3.60
2022-07-25T07:00:56.775Z,3.55
2022-07-25T07:03:25.974Z,3.90
2022-07-25T07:05:53.824Z,3.92
2022-07-25T07:08:21.916Z,3.80
2022-07-25T07:10:49.883Z,3.78
2022-07-25T07:13:23.753Z,3.87
2022-07-25T07:15:52.755Z,3.87
2022-07-25T07:18:21.689Z,4.15
2022-07-25T07:20:51.722Z,3.90
2022-07-25T07:23:20.097Z,4.12
2022-07-25T07:25:48.235Z,4.40
2022-07-25T07:28:16.541Z,3.97
2022-07-25T07:31:14.676Z,3.80
2022-07-25T07:33:33.429Z,4.05
2022-07-25T07:36:03.311Z,3.65
2022-07-25T07:38:31.174Z,4.50
2022-07-25T07:40:59.034Z,4.22
2022-07-25T07:43:29.878Z,3.53
2022-07-25T07:46:00.720Z,4.22
2022-07-25T07:48:29.628Z,3.95
2022-07-25T07:50:57.986Z,4.07
2022-07-25T07:53:47.695Z,3.45
2022-07-25T07:56:16.326Z,3.80
2022-07-25T07:58:45.153Z,4.15
2022-07-25T08:01:13.099Z,4.00
2022-07-25T08:03:41.314Z,3.72
2022-07-25T08:06:09.280Z,3.85
2022-07-25T08:08:39.084Z,3.75
2022-07-25T08:11:07.208Z,4.10
2022-07-25T08:13:35.190Z,4.25
2022-07-25T08:16:04.260Z,4.22
2022-07-25T08:18:33.756Z,4.40
2022-07-25T08:21:04.144Z,3.75
2022-07-25T08:23:34.624Z,4.30
2022-07-25T08:26:04.088Z,3.78
2022-07-25T08:28:32.516Z,4.20
2022-07-25T08:31:00.645Z,3.70
2022-07-25T08:33:28.681Z,3.85
2022-07-25T08:35:58.837Z,4.07
2022-07-25T08:38:29.417Z,4.18
2022-07-25T08:40:58.828Z,4.00
2022-07-25T08:43:32.849Z,3.60
2022-07-25T08:46:02.767Z,3.97
2022-07-25T08:48:30.788Z,4.28
2022-07-25T08:50:59.008Z,4.20
2022-07-25T08:53:32.994Z,3.70
2022-07-25T08:56:17.395Z,3.95
2022-07-25T08:58:49.419Z,3.78
2022-07-25T09:01:17.607Z,4.10
2022-07-25T09:03:48.127Z,4.15
2022-07-25T09:06:18.817Z,4.03
2022-07-25T09:08:54.362Z,4.20
2022-07-25T09:11:31.231Z,4.20
2022-07-25T09:14:02.732Z,4.80
2022-07-25T09:16:35.523Z,3.75
2022-07-25T09:19:08.271Z,3.90
2022-07-25T09:21:36.436Z,3.92
2022-07-25T09:24:12.523Z,3.67
2022-07-25T09:26:51.666Z,4.00
2022-07-25T09:29:22.857Z,3.90
2022-07-25T09:31:51.764Z,4.40
2022-07-25T09:34:32.011Z,4.12
2022-07-25T09:37:00.204Z,4.07
2022-07-25T09:39:45.021Z,4.10
2022-07-25T09:42:20.019Z,3.80
2022-07-25T09:45:11.230Z,4.12
2022-07-25T09:47:52.068Z,4.20
2022-07-25T09:50:21.685Z,4.32
2022-07-25T09:52:52.219Z,4.20
2022-07-25T09:55:21.369Z,4.10
2022-07-25T09:57:52.523Z,3.72
2022-07-25T10:00:24.977Z,3.83
2022-07-25T10:03:06.370Z,3.58
2022-07-25T10:05:48.399Z,3.80
2022-07-25T10:08:16.986Z,3.90
2022-07-25T10:10:44.989Z,3.83
2022-07-25T10:13:17.706Z,4.37
2022-07-25T10:15:49.507Z,3.55
2022-07-25T10:18:20.674Z,3.72
2022-07-25T10:20:50.894Z,3.30
2022-07-25T10:26:20.397Z,3.60
2022-07-25T10:28:50.234Z,3.97
2022-07-25T10:31:22.961Z,3.70
2022-07-25T10:33:55.975Z,4.03
2022-07-25T10:36:25.484Z,3.95
2022-07-25T10:38:57.058Z,3.72
2022-07-25T10:41:27.265Z,3.80
2022-07-25T10:43:58.582Z,3.67
2022-07-25T10:46:30.846Z,3.58
2022-07-25T10:49:01.125Z,3.87
2022-07-25T10:51:32.071Z,3.60
2022-07-25T10:54:00.334Z,4.28
2022-07-25T10:56:29.832Z,3.72
2022-07-25T10:58:59.644Z,3.65
2022-07-25T11:01:30.599Z,3.28
2022-07-25T11:04:00.645Z,3.30
2022-07-25T11:06:34.865Z,4.00
2022-07-25T11:09:04.219Z,3.85
2022-07-25T11:11:40.984Z,3.70
2022-07-25T11:14:16.674Z,3.22
2022-07-25T11:16:47.288Z,3.45
2022-07-25T11:19:23.383Z,3.90
2022-07-25T11:21:54.568Z,3.53
2022-07-25T11:24:23.519Z,3.20
2022-07-25T11:26:54.066Z,3.65
2022-07-25T11:29:24.196Z,3.50
2022-07-25T11:31:55.296Z,3.55
2022-07-25T11:34:25.446Z,3.45
2022-07-25T11:36:57.108Z,3.53
2022-07-25T11:39:27.651Z,4.00
2022-07-25T11:42:03.314Z,3.45
2022-07-25T11:44:33.139Z,3.78
2022-07-25T11:47:02.991Z,3.97
2022-07-25T11:49:32.201Z,3.40
2022-07-25T11:52:00.107Z,3.55
2022-07-25T11:54:27.974Z,4.03
2022-07-25T11:56:56.187Z,3.45
2022-07-25T11:59:25.331Z,3.90
2022-07-25T12:01:53.375Z,3.58
2022-07-25T12:04:23.079Z,3.53
2022-07-25T12:06:51.048Z,3.83
2022-07-25T12:09:21.055Z,3.80
2022-07-25T12:11:50.548Z,4.05
2022-07-25T12:14:18.690Z,3.58
2022-07-25T12:16:46.661Z,3.55
2022-07-25T12:19:23.007Z,4.25
2022-07-25T12:21:50.916Z,3.65
2022-07-25T12:24:19.055Z,3.67
2022-07-25T12:26:47.000Z,3.28
2022-07-25T12:29:14.927Z,3.65
2022-07-25T12:31:43.040Z,3.90
2022-07-25T12:34:10.938Z,3.22
2022-07-25T12:36:43.978Z,3.40
2022-07-25T12:39:12.411Z,3.47
2022-07-25T12:41:42.518Z,3.30
2022-07-25T12:44:11.927Z,3.97
2022-07-25T12:46:47.156Z,3.92
2022-07-25T12:49:16.993Z,3.17
2022-07-25T12:51:46.665Z,3.40
2022-07-25T12:54:22.063Z,3.12
2022-07-25T12:56:50.753Z,3.22
2022-07-25T12:59:18.740Z,3.15
2022-07-25T13:01:46.930Z,3.67
2022-07-25T13:04:15.208Z,3.30
2022-07-25T13:06:43.153Z,3.37
2022-07-25T13:09:12.377Z,3.67
2022-07-25T13:11:40.511Z,3.35
2022-07-25T13:14:08.463Z,4.00
2022-07-25T13:16:37.912Z,3.50
2022-07-25T13:19:06.656Z,3.72
2022-07-25T13:21:34.973Z,3.70
2022-07-25T13:24:02.956Z,3.15
2022-07-25T13:26:32.572Z,3.47
2022-07-25T13:29:01.188Z,3.47
2022-07-25T13:31:29.579Z,3.58
2022-07-25T13:33:57.829Z,3.33
2022-07-25T13:36:25.807Z,3.58
2022-07-25T13:38:53.670Z,2.80
2022-07-25T13:41:21.851Z,2.65
2022-07-25T13:43:51.077Z,3.60
2022-07-25T13:46:19.059Z,3.15
2022-07-25T13:48:47.463Z,3.03
2022-07-25T13:51:15.552Z,3.20
2022-07-25T13:53:44.835Z,3.10
2022-07-25T13:56:13.373Z,3.15
2022-07-25T13:58:42.103Z,3.33
2022-07-25T14:01:11.720Z,3.37
2022-07-25T14:03:40.486Z,2.95
2022-07-25T14:06:11.185Z,3.10
2022-07-25T14:08:41.131Z,3.50
2022-07-25T14:11:09.302Z,3.20
2022-07-25T14:13:38.022Z,3.60
2022-07-25T14:16:07.149Z,3.08
2022-07-25T14:18:36.639Z,3.67
2022-07-25T14:21:04.683Z,3.70
2022-07-25T14:23:32.857Z,3.53
2022-07-25T14:26:00.740Z,3.70
2022-07-25T14:28:28.649Z,3.40
2022-07-25T14:30:56.892Z,3.85
2022-07-25T14:33:24.881Z,3.42
2022-07-25T14:35:54.271Z,3.70
2022-07-25T14:38:22.512Z,3.53
2022-07-25T14:40:50.432Z,3.33
2022-07-25T14:43:18.516Z,4.10
2022-07-25T14:45:46.723Z,3.33
2022-07-25T14:48:14.766Z,3.72
2022-07-25T14:50:42.698Z,3.40
2022-07-25T14:53:13.406Z,3.95
2022-07-25T14:55:41.612Z,3.67
2022-07-25T14:58:09.535Z,3.45
2022-07-25T15:00:41.667Z,3.70
2022-07-25T15:03:10.308Z,3.70
2022-07-25T15:05:39.346Z,4.00
2022-07-25T15:08:07.718Z,3.37
2022-07-25T15:10:37.185Z,3.97
2022-07-25T15:13:29.989Z,3.53
2022-07-25T15:15:53.449Z,3.70
2022-07-25T15:18:21.669Z,4.10
2022-07-25T15:20:51.780Z,4.00
2022-07-25T15:23:21.092Z,3.72
2022-07-25T15:26:01.658Z,3.83
2022-07-25T15:28:31.445Z,3.47
2022-07-25T15:30:59.682Z,4.30
2022-07-25T15:33:27.729Z,3.92
2022-07-25T15:35:55.804Z,4.03
2022-07-25T15:38:24.597Z,4.37
2022-07-25T15:40:53.923Z,4.10
2022-07-25T15:43:22.027Z,3.80
2022-07-25T15:45:50.468Z,4.18
2022-07-25T15:48:19.581Z,3.75
2022-07-25T15:50:51.328Z,3.92
2022-07-25T15:53:19.713Z,4.12
2022-07-25T15:55:49.028Z,4.00
2022-07-25T15:58:18.334Z,3.83
2022-07-25T16:00:46.643Z,3.72
2022-07-25T16:03:14.946Z,3.67
2022-07-25T16:05:44.640Z,4.03
2022-07-25T16:08:12.500Z,4.25
2022-07-25T16:10:40.619Z,4.05
2022-07-25T16:13:08.616Z,3.87
2022-07-25T16:15:37.941Z,4.25
2022-07-25T16:18:06.836Z,7.20
2022-07-25T16:20:34.869Z,4.60
2022-07-25T16:23:03.031Z,3.70
2022-07-25T16:25:31.489Z,4.25
2022-07-25T16:28:00.558Z,4.50
2022-07-25T16:30:29.569Z,4.22
2022-07-25T16:32:59.084Z,4.80
2022-07-25T16:35:27.392Z,4.07
2022-07-25T16:37:55.237Z,3.72
2022-07-25T16:40:28.703Z,3.60
2022-07-25T16:42:59.541Z,3.83
2022-07-25T16:45:28.583Z,4.28
2022-07-25T16:47:56.446Z,3.90
2022-07-25T16:50:25.747Z,4.78
2022-07-25T16:52:54.834Z,4.18
2022-07-25T16:55:22.828Z,4.00
2022-07-25T16:57:50.910Z,4.25
2022-07-25T17:00:19.227Z,3.97
2022-07-25T17:02:47.268Z,4.10
2022-07-25T17:05:15.532Z,3.90
2022-07-25T17:07:45.115Z,3.50
2022-07-25T17:10:13.358Z,3.67
2022-07-25T17:12:41.326Z,4.43
2022-07-25T17:15:10.787Z,3.92
2022-07-25T17:17:38.880Z,5.32
2022-07-25T17:20:08.088Z,5.03
2022-07-25T17:22:36.262Z,4.05
2022-07-25T17:25:06.603Z,4.07
2022-07-25T17:27:34.562Z,3.95
2022-07-25T17:30:02.755Z,4.50
2022-07-25T17:32:31.029Z,4.40
2022-07-25T17:34:59.822Z,3.92
2022-07-25T17:37:28.435Z,3.30
2022-07-25T17:39:56.398Z,4.10
2022-07-25T17:42:25.713Z,3.78
2022-07-25T17:44:54.116Z,3.85
2022-07-25T17:47:23.318Z,3.85
2022-07-25T17:49:51.421Z,3.65
2022-07-25T17:52:19.601Z,3.95
2022-07-25T17:54:47.623Z,3.58
2022-07-25T17:57:15.718Z,3.55
2022-07-25T17:59:45.216Z,5.70
2022-07-25T18:02:13.196Z,4.80
2022-07-25T18:04:41.530Z,3.72
2022-07-25T18:07:09.855Z,3.60
2022-07-25T18:09:38.090Z,3.75
2022-07-25T18:12:07.120Z,3.58
2022-07-25T18:14:35.104Z,3.80
2022-07-25T18:17:06.134Z,3.67
2022-07-25T18:19:34.248Z,3.90
2022-07-25T18:22:02.098Z,4.07
2022-07-25T18:24:30.306Z,4.32
2022-07-25T18:26:59.580Z,3.65
2022-07-25T18:29:27.548Z,3.70
2022-07-25T18:31:55.424Z,3.95
2022-07-25T18:34:25.043Z,4.07
2022-07-25T18:36:53.017Z,4.37
2022-07-25T18:39:21.028Z,4.25
2022-07-25T18:41:49.287Z,4.03
2022-07-25T18:44:17.569Z,3.80
2022-07-25T18:46:46.261Z,3.92
2022-07-25T18:49:14.550Z,4.40
2022-07-25T18:51:43.925Z,4.32
2022-07-25T18:54:11.900Z,4.22
2022-07-25T18:56:40.101Z,4.30
2022-07-25T18:59:08.693Z,4.50
2022-07-25T19:01:37.430Z,4.07
2022-07-25T19:04:06.196Z,4.45
2022-07-25T19:06:34.322Z,4.35
2022-07-25T19:09:04.419Z,4.18
2022-07-25T19:11:33.281Z,3.95
2022-07-25T19:14:01.894Z,3.92
2022-07-25T19:16:29.949Z,4.20
2022-07-25T19:18:58.299Z,4.32
2022-07-25T19:21:26.281Z,4.43
2022-07-25T19:23:54.184Z,4.37
2022-07-25T19:26:23.850Z,4.60
2022-07-25T19:28:51.969Z,4.20
2022-07-25T19:31:20.199Z,4.35
2022-07-25T19:33:49.284Z,5.05
2022-07-25T19:36:17.603Z,5.20
2022-07-25T19:38:45.538Z,4.43
2022-07-25T19:41:14.443Z,4.85
2022-07-25T19:43:43.779Z,3.95
2022-07-25T19:46:11.770Z,4.12
2022-07-25T19:48:40.282Z,4.75
2022-07-25T19:51:08.276Z,4.50
2022-07-25T19:53:36.211Z,4.85
2022-07-25T19:56:06.601Z,5.12
2022-07-25T19:58:38.696Z,4.97
2022-07-25T20:01:09.677Z,4.87
2022-07-25T20:03:37.861Z,4.50
2022-07-25T20:06:08.256Z,4.22
2022-07-25T20:08:37.127Z,4.25
2022-07-25T20:11:05.299Z,4.07
2022-07-25T20:13:33.208Z,4.62
2022-07-25T20:16:02.103Z,4.65
2022-07-25T20:18:31.802Z,4.65
2022-07-25T20:20:59.762Z,4.50
2022-07-25T20:23:28.048Z,4.43
2022-07-25T20:25:56.151Z,4.87
2022-07-25T20:28:24.104Z,5.47
2022-07-25T20:30:52.170Z,5.20
2022-07-25T20:33:20.654Z,4.90
2022-07-25T20:35:49.874Z,4.78
2022-07-25T20:38:17.758Z,5.30
2022-07-25T20:40:49.608Z,4.37
2022-07-25T20:43:18.097Z,5.70
2022-07-25T20:45:47.443Z,4.95
2022-07-25T20:48:15.779Z,4.80
2022-07-25T20:50:44.787Z,4.78
2022-07-25T20:53:14.280Z,4.72
2022-07-25T20:55:42.349Z,5.20
2022-07-25T20:58:10.285Z,5.07
2022-07-25T21:00:38.518Z,4.72
2022-07-25T21:03:08.242Z,4.57
2022-07-25T21:05:39.347Z,4.68
2022-07-25T21:08:07.963Z,4.28
2022-07-25T21:10:37.413Z,3.67
2022-07-25T21:13:05.351Z,4.20
2022-07-25T21:15:33.840Z,3.85
2022-07-25T21:18:01.849Z,4.35
2022-07-25T21:20:29.876Z,4.20
2022-07-25T21:22:58.161Z,4.43
2022-07-25T21:25:26.692Z,4.68
2022-07-25T21:27:56.085Z,4.15
2022-07-25T21:30:24.606Z,4.18
2022-07-25T21:32:52.557Z,3.53
2022-07-25T21:35:20.595Z,4.40
2022-07-25T21:37:48.884Z,3.55
2022-07-25T21:40:16.762Z,3.72
2022-07-25T21:42:45.262Z,3.47
2022-07-25T21:45:14.943Z,3.50
2022-07-25T21:47:42.939Z,3.47
2022-07-25T21:50:29.507Z,3.12
2022-07-25T21:52:57.898Z,2.75
2022-07-25T21:55:25.974Z,2.80
2022-07-25T21:57:53.972Z,3.15
2022-07-25T22:00:23.527Z,3.05
2022-07-25T22:02:51.856Z,2.50
2022-07-25T22:05:20.254Z,3.12
2022-07-25T22:07:49.056Z,2.78
2022-07-25T22:10:19.389Z,3.05
2022-07-25T22:12:47.743Z,3.42
2022-07-25T22:15:16.470Z,3.03
2022-07-25T22:17:48.597Z,3.55
2022-07-25T22:20:18.122Z,3.12
2022-07-25T22:22:46.709Z,2.62
2022-07-25T22:25:15.005Z,3.05
2022-07-25T22:27:43.046Z,3.70
2022-07-25T22:30:18.290Z,3.92
2022-07-25T22:32:49.218Z,3.30
2022-07-25T22:35:18.095Z,3.83
2022-07-25T22:37:46.748Z,3.80
2022-07-25T22:40:15.205Z,3.72
2022-07-25T22:42:43.684Z,3.72
2022-07-25T22:45:12.131Z,3.47
2022-07-25T22:47:40.092Z,3.22
2022-07-25T22:50:13.380Z,3.33
2022-07-25T22:52:41.437Z,3.35
2022-07-25T22:55:10.472Z,3.25
2022-07-25T22:57:38.575Z,3.10
2022-07-25T23:00:08.972Z,3.70
2022-07-25T23:02:37.163Z,3.50
2022-07-25T23:05:06.102Z,3.28
2022-07-25T23:07:35.918Z,3.05
2022-07-25T23:10:05.646Z,4.07
2022-07-25T23:12:33.603Z,3.53
2022-07-25T23:15:01.592Z,3.37
2022-07-25T23:17:29.976Z,3.12
2022-07-25T23:19:58.594Z,3.45
2022-07-25T23:22:28.288Z,3.83
2022-07-25T23:24:58.627Z,3.20
2022-07-25T23:27:27.132Z,3.60
2022-07-25T23:29:55.177Z,3.28
2022-07-25T23:32:23.356Z,3.53
2022-07-25T23:34:51.256Z,3.58
2022-07-25T23:37:19.235Z,3.25
2022-07-25T23:39:47.372Z,3.12
2022-07-25T23:42:16.586Z,3.40
2022-07-25T23:44:46.127Z,2.75
2022-07-25T23:47:15.428Z,3.37
2022-07-25T23:49:45.750Z,3.47
2022-07-25T23:52:14.314Z,3.15
2022-07-25T23:54:42.602Z,3.97
2022-07-25T23:57:12.547Z,3.12
2022-07-25T23:59:41.932Z,3.40
